Date,TemperatureHighF,TemperatureAvgF,TemperatureLowF,DewpointHighF,DewpointAvgF,DewpointLowF,HumidityHigh,HumidityAvg,HumidityLow,PressureMaxIn,PressureMinIn,WindSpeedMaxMPH,WindSpeedAvgMPH,GustSpeedMaxMPH,PrecipitationSumIn
2013-9-1,85.5,72.6,65.8,70.7,67.5,64.9,100,85,56,29.90,29.81,4,0,4,0.00
2013-9-2,81.7,70.5,62.2,72.0,67.4,61.2,96,90,67,29.87,29.69,19,0,19,0.24
2013-9-3,75.6,64.2,59.4,63.7,60.4,57.4,100,89,59,29.84,29.72,18,0,18,0.03
2013-9-4,70.9,62.1,57.2,59.7,57.1,51.6,98,85,58,29.96,29.84,16,1,16,0.29
2013-9-5,62.2,54.6,44.4,57.0,46.6,37.8,100,77,46,30.22,29.92,19,1,20,0.02
2013-9-6,68.5,51.9,38.5,49.3,42.1,37.4,98,73,41,30.31,30.11,11,1,11,0.00
2013-9-7,70.0,58.8,50.4,55.9,50.4,45.3,94,75,45,30.12,29.87,9,0,9,0.00
2013-9-8,61.3,54.0,45.3,55.0,46.8,39.6,96,78,51,30.15,29.80,20,1,20,0.08
2013-9-9,70.5,53.6,39.7,49.3,43.2,38.5,97,71,35,30.26,30.11,8,0,8,0.00
2013-9-10,76.8,64.0,54.9,69.6,60.4,49.1,98,88,69,30.13,30.01,11,0,11,0.46
2013-9-11,88.9,75.6,66.2,75.6,69.9,65.5,99,84,55,30.04,29.91,15,1,15,0.05
2013-9-12,77.2,69.1,64.0,71.1,66.5,63.7,99,92,77,29.95,29.64,12,0,14,0.83
2013-9-13,64.0,57.5,51.4,63.7,56.7,50.5,99,97,93,29.88,29.63,8,0,8,0.46
2013-9-14,60.3,51.9,45.9,51.8,48.8,44.2,97,90,70,30.13,29.87,10,0,10,0.00
2013-9-15,66.4,52.8,40.5,55.2,48.0,39.7,100,85,54,30.20,30.06,14,0,14,0.01
2013-9-16,55.4,48.7,37.6,52.3,44.8,35.6,98,87,61,30.39,30.06,13,0,15,0.09
2013-9-17,63.0,46.5,33.6,48.7,40.2,32.5,100,81,52,30.55,30.38,10,0,10,0.00
2013-9-18,72.7,52.6,36.7,53.2,44.5,35.8,99,78,39,30.39,30.19,7,0,9,0.00
2013-9-19,76.5,56.9,41.7,56.5,49.2,41.0,99,79,42,30.21,30.08,6,0,7,0.00
2013-9-20,81.3,62.7,46.8,60.3,53.0,45.7,99,74,45,30.15,29.96,15,1,15,0.00
2013-9-21,73.9,64.6,56.3,61.3,56.3,52.7,91,75,52,29.97,29.61,20,2,20,0.02
2013-9-22,63.1,54.0,46.2,61.0,51.1,41.5,98,90,79,29.92,29.58,13,1,16,0.69
2013-9-23,48.7,45.4,41.5,41.7,40.4,38.5,92,82,74,30.10,29.92,14,1,14,0.00
2013-9-24,58.6,49.5,44.1,46.4,42.3,38.8,85,77,58,30.09,29.97,14,1,17,0.00
2013-9-25,59.5,51.3,44.1,50.9,46.7,42.8,97,85,67,30.09,29.98,8,0,8,0.00
2013-9-26,61.0,50.9,40.6,51.1,46.2,39.6,98,85,64,30.24,30.09,9,0,9,0.00
2013-9-27,66.7,55.5,50.2,55.9,50.6,48.2,96,84,60,30.35,30.23,7,0,7,0.00
2013-9-28,73.9,56.2,43.7,57.4,50.4,43.0,99,84,50,30.43,30.30,4,0,7,0.00
2013-9-29,74.5,57.1,43.9,57.6,48.9,43.2,99,78,38,30.30,30.11,7,0,9,0.01
2013-9-30,73.8,56.7,44.1,55.0,49.9,43.2,99,81,45,30.15,30.01,7,0,7,0.00